sensor_id;sensor_type;location;lat;lon;timestamp;temperature;humidity
11112;DHT22;5609;49.466;8.468;2022-12-20T05:01:08;7.70;99.90
11112;DHT22;5609;49.466;8.468;2022-12-20T05:03:35;8.70;99.90
11112;DHT22;5609;49.466;8.468;2022-12-20T05:06:02;8.60;99.90
11112;DHT22;5609;49.466;8.468;2022-12-20T05:08:29;8.70;99.90
11112;DHT22;5609;49.466;8.468;2022-12-20T05:10:56;8.80;99.90
11112;DHT22;5609;49.466;8.468;2022-12-20T05:13:22;8.80;99.90
11112;DHT22;5609;49.466;8.468;2022-12-20T05:15:50;8.80;99.90
11112;DHT22;5609;49.466;8.468;2022-12-20T05:18:18;8.80;99.90
11112;DHT22;5609;49.466;8.468;2022-12-20T05:20:46;8.80;99.90
11112;DHT22;5609;49.466;8.468;2022-12-20T05:23:13;8.70;99.90
11112;DHT22;5609;49.466;8.468;2022-12-20T05:26:08;8.60;99.90
11112;DHT22;5609;49.466;8.468;2022-12-20T05:28:43;8.60;99.90
11112;DHT22;5609;49.466;8.468;2022-12-20T05:31:10;8.50;99.90
11112;DHT22;5609;49.466;8.468;2022-12-20T05:33:38;8.30;99.90
11112;DHT22;5609;49.466;8.468;2022-12-20T05:36:06;8.10;99.90
11112;DHT22;5609;49.466;8.468;2022-12-20T05:38:32;8.00;99.90
11112;DHT22;5609;49.466;8.468;2022-12-20T05:40:59;7.80;99.90
11112;DHT22;5609;49.466;8.468;2022-12-20T05:43:26;7.80;99.90
11112;DHT22;5609;49.466;8.468;2022-12-20T05:45:53;7.70;99.90
11112;DHT22;5609;49.466;8.468;2022-12-20T05:48:19;7.60;99.90
11112;DHT22;5609;49.466;8.468;2022-12-20T05:50:48;7.60;99.90
11112;DHT22;5609;49.466;8.468;2022-12-20T05:53:15;7.60;99.90
11112;DHT22;5609;49.466;8.468;2022-12-20T05:55:43;7.60;99.90
11112;DHT22;5609;49.466;8.468;2022-12-20T05:58:10;7.60;99.90
11112;DHT22;5609;49.466;8.468;2022-12-20T06:00:38;7.50;99.90
11112;DHT22;5609;49.466;8.468;2022-12-20T06:03:06;7.50;99.90
11112;DHT22;5609;49.466;8.468;2022-12-20T06:05:34;7.50;99.90
11112;DHT22;5609;49.466;8.468;2022-12-20T06:08:02;7.40;99.90
11112;DHT22;5609;49.466;8.468;2022-12-20T06:10:29;7.40;99.90
11112;DHT22;5609;49.466;8.468;2022-12-20T06:12:56;7.40;99.90
11112;DHT22;5609;49.466;8.468;2022-12-20T06:15:23;7.40;99.90
11112;DHT22;5609;49.466;8.468;2022-12-20T06:17:49;7.40;99.90
11112;DHT22;5609;49.466;8.468;2022-12-20T06:20:17;7.40;99.90
11112;DHT22;5609;49.466;8.468;2022-12-20T06:22:44;7.40;99.90
11112;DHT22;5609;49.466;8.468;2022-12-20T06:25:12;7.40;99.90
11112;DHT22;5609;49.466;8.468;2022-12-20T06:27:39;7.30;99.90
11112;DHT22;5609;49.466;8.468;2022-12-20T06:30:07;7.30;99.90
11112;DHT22;5609;49.466;8.468;2022-12-20T06:32:35;7.30;99.90
11112;DHT22;5609;49.466;8.468;2022-12-20T06:35:03;7.30;99.90
11112;DHT22;5609;49.466;8.468;2022-12-20T06:37:30;7.40;99.90
11112;DHT22;5609;49.466;8.468;2022-12-20T06:39:57;7.30;99.90
11112;DHT22;5609;49.466;8.468;2022-12-20T06:42:25;7.40;99.90
11112;DHT22;5609;49.466;8.468;2022-12-20T06:44:52;7.40;99.90
11112;DHT22;5609;49.466;8.468;2022-12-20T06:47:19;7.40;99.90
11112;DHT22;5609;49.466;8.468;2022-12-20T06:49:46;7.40;99.90
11112;DHT22;5609;49.466;8.468;2022-12-20T06:52:12;7.40;99.90
11112;DHT22;5609;49.466;8.468;2022-12-20T06:54:39;7.40;99.90
11112;DHT22;5609;49.466;8.468;2022-12-20T06:57:07;7.40;99.90
11112;DHT22;5609;49.466;8.468;2022-12-20T06:59:35;7.50;99.90
11112;DHT22;5609;49.466;8.468;2022-12-20T07:02:02;7.40;99.90
11112;DHT22;5609;49.466;8.468;2022-12-20T07:04:29;7.40;99.90
11112;DHT22;5609;49.466;8.468;2022-12-20T07:06:56;7.50;99.90
11112;DHT22;5609;49.466;8.468;2022-12-20T07:09:23;7.50;99.90
11112;DHT22;5609;49.466;8.468;2022-12-20T07:11:49;7.50;99.90
11112;DHT22;5609;49.466;8.468;2022-12-20T07:14:17;7.50;99.90
11112;DHT22;5609;49.466;8.468;2022-12-20T07:16:45;7.50;99.90
11112;DHT22;5609;49.466;8.468;2022-12-20T07:19:12;7.50;99.90
11112;DHT22;5609;49.466;8.468;2022-12-20T07:21:39;7.60;99.90
11112;DHT22;5609;49.466;8.468;2022-12-20T07:24:07;7.50;99.90
11112;DHT22;5609;49.466;8.468;2022-12-20T07:26:34;7.60;99.90
11112;DHT22;5609;49.466;8.468;2022-12-20T07:29:01;7.60;99.90
11112;DHT22;5609;49.466;8.468;2022-12-20T07:31:28;7.60;99.90
11112;DHT22;5609;49.466;8.468;2022-12-20T07:33:56;7.60;99.90
11112;DHT22;5609;49.466;8.468;2022-12-20T07:36:23;7.60;99.90
11112;DHT22;5609;49.466;8.468;2022-12-20T07:38:49;7.60;99.90
11112;DHT22;5609;49.466;8.468;2022-12-20T07:41:16;7.60;99.90
11112;DHT22;5609;49.466;8.468;2022-12-20T07:43:43;7.60;99.90
11112;DHT22;5609;49.466;8.468;2022-12-20T07:46:12;7.60;99.90
11112;DHT22;5609;49.466;8.468;2022-12-20T07:48:39;7.60;99.90
11112;DHT22;5609;49.466;8.468;2022-12-20T07:51:09;7.60;99.90
11112;DHT22;5609;49.466;8.468;2022-12-20T07:53:39;7.60;99.90
11112;DHT22;5609;49.466;8.468;2022-12-20T07:56:07;7.60;99.90
11112;DHT22;5609;49.466;8.468;2022-12-20T07:58:39;7.60;99.90
11112;DHT22;5609;49.466;8.468;2022-12-20T08:01:08;7.60;99.90
11112;DHT22;5609;49.466;8.468;2022-12-20T08:03:39;7.50;99.90
11112;DHT22;5609;49.466;8.468;2022-12-20T08:06:09;7.50;99.90
11112;DHT22;5609;49.466;8.468;2022-12-20T08:08:40;7.60;99.90
11112;DHT22;5609;49.466;8.468;2022-12-20T08:11:09;7.60;99.90
11112;DHT22;5609;49.466;8.468;2022-12-20T08:13:36;7.50;99.90
11112;DHT22;5609;49.466;8.468;2022-12-20T08:16:05;7.50;99.90
11112;DHT22;5609;49.466;8.468;2022-12-20T08:18:32;7.60;99.90
11112;DHT22;5609;49.466;8.468;2022-12-20T08:20:58;7.60;99.90
11112;DHT22;5609;49.466;8.468;2022-12-20T08:23:27;7.60;99.90
11112;DHT22;5609;49.466;8.468;2022-12-20T08:25:54;7.70;99.90
11112;DHT22;5609;49.466;8.468;2022-12-20T08:28:20;7.70;99.90
11112;DHT22;5609;49.466;8.468;2022-12-20T08:30:48;7.70;99.90
11112;DHT22;5609;49.466;8.468;2022-12-20T08:33:15;7.60;99.90
11112;DHT22;5609;49.466;8.468;2022-12-20T08:35:41;7.60;99.90
11112;DHT22;5609;49.466;8.468;2022-12-20T08:38:08;7.70;99.90
11112;DHT22;5609;49.466;8.468;2022-12-20T08:40:36;7.70;99.90
11112;DHT22;5609;49.466;8.468;2022-12-20T08:43:03;7.70;99.90
11112;DHT22;5609;49.466;8.468;2022-12-20T08:45:30;7.80;99.90
11112;DHT22;5609;49.466;8.468;2022-12-20T08:47:57;7.80;99.90
11112;DHT22;5609;49.466;8.468;2022-12-20T08:50:23;7.80;99.90
11112;DHT22;5609;49.466;8.468;2022-12-20T08:52:51;7.90;99.90
11112;DHT22;5609;49.466;8.468;2022-12-20T08:55:18;7.90;99.90
11112;DHT22;5609;49.466;8.468;2022-12-20T08:57:46;7.90;99.90
11112;DHT22;5609;49.466;8.468;2022-12-20T09:00:13;8.00;99.90
11112;DHT22;5609;49.466;8.468;2022-12-20T09:02:40;8.10;99.90
11112;DHT22;5609;49.466;8.468;2022-12-20T09:05:08;8.00;99.90
11112;DHT22;5609;49.466;8.468;2022-12-20T09:07:36;8.10;99.90
11112;DHT22;5609;49.466;8.468;2022-12-20T09:10:03;8.10;99.90
11112;DHT22;5609;49.466;8.468;2022-12-20T09:12:30;8.10;99.90
11112;DHT22;5609;49.466;8.468;2022-12-20T09:14:58;8.20;99.90
11112;DHT22;5609;49.466;8.468;2022-12-20T09:17:25;8.20;99.90
11112;DHT22;5609;49.466;8.468;2022-12-20T09:19:52;8.20;99.90
11112;DHT22;5609;49.466;8.468;2022-12-20T09:22:19;8.20;99.90
11112;DHT22;5609;49.466;8.468;2022-12-20T09:24:46;8.30;99.90
11112;DHT22;5609;49.466;8.468;2022-12-20T09:27:13;8.30;99.90
11112;DHT22;5609;49.466;8.468;2022-12-20T09:29:40;8.40;99.90
11112;DHT22;5609;49.466;8.468;2022-12-20T09:32:08;8.40;99.90
11112;DHT22;5609;49.466;8.468;2022-12-20T09:34:35;8.50;99.90
11112;DHT22;5609;49.466;8.468;2022-12-20T09:37:02;8.60;99.90
11112;DHT22;5609;49.466;8.468;2022-12-20T09:39:29;8.70;99.90
11112;DHT22;5609;49.466;8.468;2022-12-20T09:41:56;8.80;99.90
11112;DHT22;5609;49.466;8.468;2022-12-20T09:44:25;8.90;99.90
11112;DHT22;5609;49.466;8.468;2022-12-20T09:46:54;9.00;99.90
11112;DHT22;5609;49.466;8.468;2022-12-20T09:49:27;9.00;99.90
11112;DHT22;5609;49.466;8.468;2022-12-20T09:52:15;9.20;99.90
11112;DHT22;5609;49.466;8.468;2022-12-20T09:54:51;9.30;99.90
11112;DHT22;5609;49.466;8.468;2022-12-20T09:57:29;9.30;99.90
11112;DHT22;5609;49.466;8.468;2022-12-20T09:59:58;9.50;99.90
11112;DHT22;5609;49.466;8.468;2022-12-20T10:02:26;9.50;99.90
11112;DHT22;5609;49.466;8.468;2022-12-20T10:04:56;9.60;99.90
11112;DHT22;5609;49.466;8.468;2022-12-20T10:07:32;9.50;99.90
11112;DHT22;5609;49.466;8.468;2022-12-20T10:10:33;9.50;99.90
11112;DHT22;5609;49.466;8.468;2022-12-20T10:13:12;9.60;99.90
11112;DHT22;5609;49.466;8.468;2022-12-20T10:15:45;9.60;99.90
11112;DHT22;5609;49.466;8.468;2022-12-20T10:18:24;9.50;99.90
11112;DHT22;5609;49.466;8.468;2022-12-20T10:21:02;9.50;99.90
11112;DHT22;5609;49.466;8.468;2022-12-20T10:23:36;9.50;99.90
11112;DHT22;5609;49.466;8.468;2022-12-20T10:26:08;9.40;99.90
11112;DHT22;5609;49.466;8.468;2022-12-20T10:28:35;9.40;99.90
11112;DHT22;5609;49.466;8.468;2022-12-20T10:31:05;9.40;99.90
11112;DHT22;5609;49.466;8.468;2022-12-20T10:33:32;9.50;99.90
11112;DHT22;5609;49.466;8.468;2022-12-20T10:36:24;9.40;99.90
11112;DHT22;5609;49.466;8.468;2022-12-20T10:38:52;9.50;99.90
11112;DHT22;5609;49.466;8.468;2022-12-20T10:41:21;9.50;99.90
11112;DHT22;5609;49.466;8.468;2022-12-20T10:43:52;9.50;99.90
11112;DHT22;5609;49.466;8.468;2022-12-20T10:46:20;9.60;99.90
11112;DHT22;5609;49.466;8.468;2022-12-20T10:48:48;9.60;99.90
11112;DHT22;5609;49.466;8.468;2022-12-20T10:51:17;9.70;99.90
11112;DHT22;5609;49.466;8.468;2022-12-20T10:53:55;9.60;99.90
11112;DHT22;5609;49.466;8.468;2022-12-20T10:56:24;9.60;99.90
11112;DHT22;5609;49.466;8.468;2022-12-20T10:58:55;9.70;99.90
11112;DHT22;5609;49.466;8.468;2022-12-20T11:01:25;9.70;99.90
11112;DHT22;5609;49.466;8.468;2022-12-20T11:03:57;9.60;99.90
11112;DHT22;5609;49.466;8.468;2022-12-20T11:06:27;9.70;99.90
11112;DHT22;5609;49.466;8.468;2022-12-20T11:09:21;9.60;99.90
11112;DHT22;5609;49.466;8.468;2022-12-20T11:12:03;9.70;99.90
11112;DHT22;5609;49.466;8.468;2022-12-20T11:14:32;9.60;99.90
11112;DHT22;5609;49.466;8.468;2022-12-20T11:17:04;9.50;99.90
11112;DHT22;5609;49.466;8.468;2022-12-20T11:19:53;9.50;99.90
11112;DHT22;5609;49.466;8.468;2022-12-20T11:22:30;9.50;99.90
11112;DHT22;5609;49.466;8.468;2022-12-20T11:25:07;9.50;99.90
11112;DHT22;5609;49.466;8.468;2022-12-20T11:27:42;9.40;99.90
11112;DHT22;5609;49.466;8.468;2022-12-20T11:30:16;9.40;99.90
11112;DHT22;5609;49.466;8.468;2022-12-20T11:33:01;9.40;99.90
11112;DHT22;5609;49.466;8.468;2022-12-20T11:35:39;9.40;99.90
11112;DHT22;5609;49.466;8.468;2022-12-20T11:38:13;9.40;99.90
11112;DHT22;5609;49.466;8.468;2022-12-20T11:40:50;9.40;99.90
11112;DHT22;5609;49.466;8.468;2022-12-20T11:43:35;9.40;99.90
11112;DHT22;5609;49.466;8.468;2022-12-20T11:46:20;9.50;99.90
11112;DHT22;5609;49.466;8.468;2022-12-20T11:49:00;9.30;99.90
11112;DHT22;5609;49.466;8.468;2022-12-20T11:51:34;9.30;99.90
11112;DHT22;5609;49.466;8.468;2022-12-20T11:54:11;9.20;99.90
11112;DHT22;5609;49.466;8.468;2022-12-20T11:56:42;9.20;99.90
11112;DHT22;5609;49.466;8.468;2022-12-20T11:59:18;9.20;99.90
11112;DHT22;5609;49.466;8.468;2022-12-20T12:01:50;9.20;99.90
11112;DHT22;5609;49.466;8.468;2022-12-20T12:04:20;9.30;99.90
11112;DHT22;5609;49.466;8.468;2022-12-20T12:06:54;9.40;99.90
11112;DHT22;5609;49.466;8.468;2022-12-20T12:09:26;9.40;99.90
11112;DHT22;5609;49.466;8.468;2022-12-20T12:12:00;9.50;99.90
11112;DHT22;5609;49.466;8.468;2022-12-20T12:14:32;9.50;99.90
11112;DHT22;5609;49.466;8.468;2022-12-20T12:17:07;9.50;99.90
11112;DHT22;5609;49.466;8.468;2022-12-20T12:19:36;9.50;99.90
11112;DHT22;5609;49.466;8.468;2022-12-20T12:22:10;9.40;99.90
11112;DHT22;5609;49.466;8.468;2022-12-20T12:24:43;9.50;99.90
11112;DHT22;5609;49.466;8.468;2022-12-20T12:27:20;9.40;99.90
11112;DHT22;5609;49.466;8.468;2022-12-20T12:29:48;9.40;99.90
11112;DHT22;5609;49.466;8.468;2022-12-20T12:32:18;9.50;99.90
11112;DHT22;5609;49.466;8.468;2022-12-20T12:34:59;9.60;99.90
11112;DHT22;5609;49.466;8.468;2022-12-20T12:37:42;9.60;99.90
11112;DHT22;5609;49.466;8.468;2022-12-20T12:40:43;9.70;99.90
11112;DHT22;5609;49.466;8.468;2022-12-20T12:46:10;10.00;99.90
11112;DHT22;5609;49.466;8.468;2022-12-20T12:48:40;10.20;99.90
11112;DHT22;5609;49.466;8.468;2022-12-20T12:51:09;10.40;99.90
11112;DHT22;5609;49.466;8.468;2022-12-20T12:53:41;10.50;99.90
11112;DHT22;5609;49.466;8.468;2022-12-20T12:56:34;10.60;99.90
11112;DHT22;5609;49.466;8.468;2022-12-20T13:02:32;10.60;99.90
11112;DHT22;5609;49.466;8.468;2022-12-20T13:05:24;10.50;99.90
11112;DHT22;5609;49.466;8.468;2022-12-20T13:07:47;10.60;99.90
11112;DHT22;5609;49.466;8.468;2022-12-20T13:13:24;10.60;99.90
11112;DHT22;5609;49.466;8.468;2022-12-20T13:16:05;10.60;99.90
11112;DHT22;5609;49.466;8.468;2022-12-20T13:18:32;10.60;99.90
11112;DHT22;5609;49.466;8.468;2022-12-20T13:21:29;10.50;99.90
11112;DHT22;5609;49.466;8.468;2022-12-20T13:24:27;10.50;99.90
11112;DHT22;5609;49.466;8.468;2022-12-20T13:26:57;10.40;99.90
11112;DHT22;5609;49.466;8.468;2022-12-20T13:29:26;10.30;99.90
11112;DHT22;5609;49.466;8.468;2022-12-20T13:31:55;10.30;99.90
11112;DHT22;5609;49.466;8.468;2022-12-20T13:34:36;10.30;99.90
11112;DHT22;5609;49.466;8.468;2022-12-20T13:37:18;10.20;99.90
11112;DHT22;5609;49.466;8.468;2022-12-20T13:39:50;10.20;99.90
11112;DHT22;5609;49.466;8.468;2022-12-20T13:42:29;10.00;99.90
11112;DHT22;5609;49.466;8.468;2022-12-20T13:45:02;9.90;99.90
11112;DHT22;5609;49.466;8.468;2022-12-20T13:47:48;9.90;99.90
11112;DHT22;5609;49.466;8.468;2022-12-20T13:50:29;9.80;99.90
11112;DHT22;5609;49.466;8.468;2022-12-20T13:52:57;9.70;99.90
11112;DHT22;5609;49.466;8.468;2022-12-20T13:55:31;9.70;99.90
11112;DHT22;5609;49.466;8.468;2022-12-20T13:58:09;9.60;99.90
11112;DHT22;5609;49.466;8.468;2022-12-20T14:00:37;9.60;99.90
11112;DHT22;5609;49.466;8.468;2022-12-20T14:03:09;9.60;99.90
11112;DHT22;5609;49.466;8.468;2022-12-20T14:05:38;9.60;99.90
11112;DHT22;5609;49.466;8.468;2022-12-20T14:08:08;9.60;99.90
11112;DHT22;5609;49.466;8.468;2022-12-20T14:10:36;9.60;99.90
11112;DHT22;5609;49.466;8.468;2022-12-20T14:13:12;9.60;99.90
11112;DHT22;5609;49.466;8.468;2022-12-20T14:15:44;9.60;99.90
11112;DHT22;5609;49.466;8.468;2022-12-20T14:18:17;9.70;99.90
11112;DHT22;5609;49.466;8.468;2022-12-20T14:20:46;9.70;99.90
11112;DHT22;5609;49.466;8.468;2022-12-20T14:23:16;9.70;99.90
11112;DHT22;5609;49.466;8.468;2022-12-20T14:25:46;9.90;99.90
11112;DHT22;5609;49.466;8.468;2022-12-20T14:28:24;10.10;99.90
11112;DHT22;5609;49.466;8.468;2022-12-20T14:30:52;10.00;99.90
11112;DHT22;5609;49.466;8.468;2022-12-20T14:33:26;10.10;99.90
11112;DHT22;5609;49.466;8.468;2022-12-20T14:35:54;10.10;99.90
11112;DHT22;5609;49.466;8.468;2022-12-20T14:38:23;10.10;99.90
11112;DHT22;5609;49.466;8.468;2022-12-20T14:40:50;10.00;99.90
11112;DHT22;5609;49.466;8.468;2022-12-20T14:43:25;9.90;99.90
11112;DHT22;5609;49.466;8.468;2022-12-20T14:46:15;9.80;99.90
11112;DHT22;5609;49.466;8.468;2022-12-20T14:48:44;9.70;99.90
11112;DHT22;5609;49.466;8.468;2022-12-20T14:51:12;9.60;99.90
11112;DHT22;5609;49.466;8.468;2022-12-20T14:53:39;9.50;99.90
11112;DHT22;5609;49.466;8.468;2022-12-20T14:56:13;9.50;99.90
11112;DHT22;5609;49.466;8.468;2022-12-20T14:58:41;9.40;99.90
11112;DHT22;5609;49.466;8.468;2022-12-20T15:01:18;9.40;99.90
11112;DHT22;5609;49.466;8.468;2022-12-20T15:03:51;9.40;99.90
11112;DHT22;5609;49.466;8.468;2022-12-20T15:06:36;9.30;99.90
11112;DHT22;5609;49.466;8.468;2022-12-20T15:09:05;9.30;99.90
11112;DHT22;5609;49.466;8.468;2022-12-20T15:11:33;9.30;99.90
11112;DHT22;5609;49.466;8.468;2022-12-20T15:14:01;9.20;99.90
11112;DHT22;5609;49.466;8.468;2022-12-20T15:16:29;9.20;99.90
11112;DHT22;5609;49.466;8.468;2022-12-20T15:18:58;9.20;99.90
11112;DHT22;5609;49.466;8.468;2022-12-20T15:21:28;9.30;99.90
11112;DHT22;5609;49.466;8.468;2022-12-20T15:23:56;9.20;99.90
11112;DHT22;5609;49.466;8.468;2022-12-20T15:26:25;9.20;99.90
11112;DHT22;5609;49.466;8.468;2022-12-20T15:28:52;9.20;99.90
11112;DHT22;5609;49.466;8.468;2022-12-20T15:31:20;9.10;99.90
11112;DHT22;5609;49.466;8.468;2022-12-20T15:33:49;9.10;99.90
11112;DHT22;5609;49.466;8.468;2022-12-20T15:36:21;9.10;99.90
11112;DHT22;5609;49.466;8.468;2022-12-20T15:38:48;9.10;99.90
11112;DHT22;5609;49.466;8.468;2022-12-20T15:41:18;9.20;99.90
11112;DHT22;5609;49.466;8.468;2022-12-20T15:43:45;9.20;99.90
11112;DHT22;5609;49.466;8.468;2022-12-20T15:46:12;9.20;99.90
11112;DHT22;5609;49.466;8.468;2022-12-20T15:48:39;9.20;99.90
11112;DHT22;5609;49.466;8.468;2022-12-20T15:51:14;9.20;99.90
11112;DHT22;5609;49.466;8.468;2022-12-20T15:53:43;9.30;99.90
11112;DHT22;5609;49.466;8.468;2022-12-20T15:56:15;9.40;99.90
11112;DHT22;5609;49.466;8.468;2022-12-20T15:58:42;9.40;99.90
11112;DHT22;5609;49.466;8.468;2022-12-20T16:01:11;9.40;99.90
11112;DHT22;5609;49.466;8.468;2022-12-20T16:03:38;9.50;99.90
11112;DHT22;5609;49.466;8.468;2022-12-20T16:06:05;9.50;99.90
11112;DHT22;5609;49.466;8.468;2022-12-20T16:08:32;9.50;99.90
11112;DHT22;5609;49.466;8.468;2022-12-20T16:11:00;9.50;99.90
11112;DHT22;5609;49.466;8.468;2022-12-20T16:13:27;9.50;99.90
11112;DHT22;5609;49.466;8.468;2022-12-20T16:15:54;9.60;99.90
11112;DHT22;5609;49.466;8.468;2022-12-20T16:18:20;9.60;99.90
11112;DHT22;5609;49.466;8.468;2022-12-20T16:20:47;9.60;99.90
11112;DHT22;5609;49.466;8.468;2022-12-20T16:23:16;9.60;99.90
11112;DHT22;5609;49.466;8.468;2022-12-20T16:25:43;9.60;99.90
11112;DHT22;5609;49.466;8.468;2022-12-20T16:28:11;9.60;99.90
11112;DHT22;5609;49.466;8.468;2022-12-20T16:30:38;9.60;99.90
11112;DHT22;5609;49.466;8.468;2022-12-20T16:33:05;9.50;99.90
11112;DHT22;5609;49.466;8.468;2022-12-20T16:35:34;9.50;99.90
11112;DHT22;5609;49.466;8.468;2022-12-20T16:38:02;9.50;99.90
11112;DHT22;5609;49.466;8.468;2022-12-20T16:40:31;9.50;99.90
11112;DHT22;5609;49.466;8.468;2022-12-20T16:42:59;9.50;99.90
11112;DHT22;5609;49.466;8.468;2022-12-20T16:45:28;9.50;99.90
11112;DHT22;5609;49.466;8.468;2022-12-20T16:47:56;9.40;99.90
11112;DHT22;5609;49.466;8.468;2022-12-20T16:50:25;9.40;99.90
11112;DHT22;5609;49.466;8.468;2022-12-20T16:52:52;9.40;99.90
11112;DHT22;5609;49.466;8.468;2022-12-20T16:55:21;9.40;99.90
11112;DHT22;5609;49.466;8.468;2022-12-20T16:57:48;9.40;99.90
11112;DHT22;5609;49.466;8.468;2022-12-20T17:00:18;9.40;99.90
11112;DHT22;5609;49.466;8.468;2022-12-20T17:02:47;9.40;99.90
11112;DHT22;5609;49.466;8.468;2022-12-20T17:05:25;9.40;99.90
11112;DHT22;5609;49.466;8.468;2022-12-20T17:07:52;9.50;99.90
11112;DHT22;5609;49.466;8.468;2022-12-20T17:10:19;9.50;99.90
11112;DHT22;5609;49.466;8.468;2022-12-20T17:12:46;9.50;99.90
11112;DHT22;5609;49.466;8.468;2022-12-20T17:15:18;9.50;99.90
11112;DHT22;5609;49.466;8.468;2022-12-20T17:17:47;9.50;99.90
11112;DHT22;5609;49.466;8.468;2022-12-20T17:20:15;9.40;99.90
11112;DHT22;5609;49.466;8.468;2022-12-20T17:22:46;9.40;99.90
11112;DHT22;5609;49.466;8.468;2022-12-20T17:25:23;9.40;99.90
11112;DHT22;5609;49.466;8.468;2022-12-20T17:27:50;9.40;99.90
11112;DHT22;5609;49.466;8.468;2022-12-20T17:30:18;9.40;99.90
11112;DHT22;5609;49.466;8.468;2022-12-20T17:32:46;9.40;99.90
11112;DHT22;5609;49.466;8.468;2022-12-20T17:35:19;9.30;99.90
11112;DHT22;5609;49.466;8.468;2022-12-20T17:37:46;9.40;99.90
11112;DHT22;5609;49.466;8.468;2022-12-20T17:40:13;9.40;99.90
11112;DHT22;5609;49.466;8.468;2022-12-20T17:42:40;9.40;99.90
11112;DHT22;5609;49.466;8.468;2022-12-20T17:45:19;9.40;99.90
11112;DHT22;5609;49.466;8.468;2022-12-20T17:47:47;9.30;99.90
11112;DHT22;5609;49.466;8.468;2022-12-20T17:50:14;9.30;99.90
11112;DHT22;5609;49.466;8.468;2022-12-20T17:52:42;9.30;99.90
11112;DHT22;5609;49.466;8.468;2022-12-20T17:55:14;9.30;99.90
11112;DHT22;5609;49.466;8.468;2022-12-20T17:57:42;9.30;99.90
11112;DHT22;5609;49.466;8.468;2022-12-20T18:00:16;9.30;99.90
11112;DHT22;5609;49.466;8.468;2022-12-20T18:02:44;9.30;99.90
11112;DHT22;5609;49.466;8.468;2022-12-20T18:05:12;9.30;99.90
11112;DHT22;5609;49.466;8.468;2022-12-20T18:07:39;9.30;99.90
11112;DHT22;5609;49.466;8.468;2022-12-20T18:10:07;9.30;99.90
11112;DHT22;5609;49.466;8.468;2022-12-20T18:12:34;9.30;99.90
11112;DHT22;5609;49.466;8.468;2022-12-20T18:15:01;9.30;99.90
11112;DHT22;5609;49.466;8.468;2022-12-20T18:17:28;9.20;99.90
11112;DHT22;5609;49.466;8.468;2022-12-20T18:19:55;9.20;99.90
11112;DHT22;5609;49.466;8.468;2022-12-20T18:22:23;9.20;99.90
11112;DHT22;5609;49.466;8.468;2022-12-20T18:24:50;9.20;99.90
11112;DHT22;5609;49.466;8.468;2022-12-20T18:27:16;9.20;99.90
11112;DHT22;5609;49.466;8.468;2022-12-20T18:29:43;9.20;99.90
11112;DHT22;5609;49.466;8.468;2022-12-20T18:32:10;9.20;99.90
11112;DHT22;5609;49.466;8.468;2022-12-20T18:34:37;9.20;99.90
11112;DHT22;5609;49.466;8.468;2022-12-20T18:37:03;9.20;99.90
11112;DHT22;5609;49.466;8.468;2022-12-20T18:39:32;9.20;99.90
11112;DHT22;5609;49.466;8.468;2022-12-20T18:41:59;9.20;99.90
11112;DHT22;5609;49.466;8.468;2022-12-20T18:44:26;9.20;99.90
11112;DHT22;5609;49.466;8.468;2022-12-20T18:46:53;9.20;99.90
11112;DHT22;5609;49.466;8.468;2022-12-20T18:49:19;9.20;99.90
11112;DHT22;5609;49.466;8.468;2022-12-20T18:51:46;9.20;99.90
11112;DHT22;5609;49.466;8.468;2022-12-20T18:54:13;9.20;99.90
11112;DHT22;5609;49.466;8.468;2022-12-20T18:56:42;9.20;99.90
11112;DHT22;5609;49.466;8.468;2022-12-20T18:59:09;9.20;99.90
11112;DHT22;5609;49.466;8.468;2022-12-20T19:01:36;9.20;99.90
11112;DHT22;5609;49.466;8.468;2022-12-20T19:04:05;9.30;99.90
11112;DHT22;5609;49.466;8.468;2022-12-20T19:06:32;9.20;99.90
11112;DHT22;5609;49.466;8.468;2022-12-20T19:08:59;9.20;99.90
11112;DHT22;5609;49.466;8.468;2022-12-20T19:11:26;9.20;99.90
11112;DHT22;5609;49.466;8.468;2022-12-20T19:13:55;9.20;99.90
11112;DHT22;5609;49.466;8.468;2022-12-20T19:16:23;9.20;99.90
11112;DHT22;5609;49.466;8.468;2022-12-20T19:18:51;9.20;99.90
11112;DHT22;5609;49.466;8.468;2022-12-20T19:21:20;9.20;99.90
11112;DHT22;5609;49.466;8.468;2022-12-20T19:23:48;9.20;99.90
11112;DHT22;5609;49.466;8.468;2022-12-20T19:26:16;9.20;99.90
11112;DHT22;5609;49.466;8.468;2022-12-20T19:28:44;9.20;99.90
11112;DHT22;5609;49.466;8.468;2022-12-20T19:31:14;9.20;99.90
11112;DHT22;5609;49.466;8.468;2022-12-20T19:33:43;9.20;99.90
11112;DHT22;5609;49.466;8.468;2022-12-20T19:36:12;9.20;99.90
11112;DHT22;5609;49.466;8.468;2022-12-20T19:38:41;9.20;99.90
11112;DHT22;5609;49.466;8.468;2022-12-20T19:41:08;9.10;99.90
11112;DHT22;5609;49.466;8.468;2022-12-20T19:43:35;9.10;99.90
11112;DHT22;5609;49.466;8.468;2022-12-20T19:46:02;9.10;99.90
11112;DHT22;5609;49.466;8.468;2022-12-20T19:48:33;9.10;99.90
11112;DHT22;5609;49.466;8.468;2022-12-20T19:51:01;9.10;99.90
11112;DHT22;5609;49.466;8.468;2022-12-20T19:53:28;9.10;99.90
11112;DHT22;5609;49.466;8.468;2022-12-20T19:55:54;9.10;99.90
11112;DHT22;5609;49.466;8.468;2022-12-20T19:58:21;9.10;99.90
11112;DHT22;5609;49.466;8.468;2022-12-20T20:00:49;9.10;99.90
11112;DHT22;5609;49.466;8.468;2022-12-20T20:03:16;9.10;99.90
11112;DHT22;5609;49.466;8.468;2022-12-20T20:05:44;9.10;99.90
11112;DHT22;5609;49.466;8.468;2022-12-20T20:08:11;9.10;99.90
11112;DHT22;5609;49.466;8.468;2022-12-20T20:10:38;9.10;99.90
11112;DHT22;5609;49.466;8.468;2022-12-20T20:13:05;9.00;99.90
11112;DHT22;5609;49.466;8.468;2022-12-20T20:15:31;9.00;99.90
11112;DHT22;5609;49.466;8.468;2022-12-20T20:17:58;8.90;99.90
11112;DHT22;5609;49.466;8.468;2022-12-20T20:20:25;8.80;99.90
11112;DHT22;5609;49.466;8.468;2022-12-20T20:22:53;8.70;99.90
11112;DHT22;5609;49.466;8.468;2022-12-20T20:25:20;8.70;99.90
11112;DHT22;5609;49.466;8.468;2022-12-20T20:27:47;8.60;99.90
11112;DHT22;5609;49.466;8.468;2022-12-20T20:30:14;8.60;99.90
11112;DHT22;5609;49.466;8.468;2022-12-20T20:32:41;8.60;99.90
11112;DHT22;5609;49.466;8.468;2022-12-20T20:35:08;8.60;99.90
11112;DHT22;5609;49.466;8.468;2022-12-20T20:37:35;8.50;99.90
11112;DHT22;5609;49.466;8.468;2022-12-20T20:40:05;8.50;99.90
11112;DHT22;5609;49.466;8.468;2022-12-20T20:42:32;8.50;99.90
11112;DHT22;5609;49.466;8.468;2022-12-20T20:44:59;8.50;99.90
11112;DHT22;5609;49.466;8.468;2022-12-20T20:47:25;8.50;99.90
11112;DHT22;5609;49.466;8.468;2022-12-20T20:49:52;8.50;99.90
11112;DHT22;5609;49.466;8.468;2022-12-20T20:52:19;8.50;99.90
11112;DHT22;5609;49.466;8.468;2022-12-20T20:54:46;8.50;99.90
11112;DHT22;5609;49.466;8.468;2022-12-20T20:57:14;8.50;99.90
11112;DHT22;5609;49.466;8.468;2022-12-20T20:59:40;8.50;99.90
11112;DHT22;5609;49.466;8.468;2022-12-20T21:02:10;8.40;99.90
11112;DHT22;5609;49.466;8.468;2022-12-20T21:04:37;8.50;99.90
11112;DHT22;5609;49.466;8.468;2022-12-20T21:07:04;8.40;99.90
11112;DHT22;5609;49.466;8.468;2022-12-20T21:09:31;8.50;99.90
11112;DHT22;5609;49.466;8.468;2022-12-20T21:11:58;8.40;99.90
11112;DHT22;5609;49.466;8.468;2022-12-20T21:14:26;8.40;99.90
11112;DHT22;5609;49.466;8.468;2022-12-20T21:16:52;8.40;99.90
11112;DHT22;5609;49.466;8.468;2022-12-20T21:19:19;8.40;99.90
11112;DHT22;5609;49.466;8.468;2022-12-20T21:21:46;8.40;99.90
11112;DHT22;5609;49.466;8.468;2022-12-20T21:24:13;8.40;99.90
11112;DHT22;5609;49.466;8.468;2022-12-20T21:26:40;8.40;99.90